Terminal Aerodrome Forecast
Issued by NWS

Home | Current Version | Previous Version | Text Only | Print | Product List | Glossary On
Versions: 1 2 3 4 5 6 7 8 9 10 11 12 13 14 15 16 17 18 19 20 21 22 23 24 25 26 27 28 29 30
000
FTUS44 KLZK 191140
TAFLLQ
TAF
KLLQ 191140Z 1912/2012 VRB05KT P6SM SCT120 BKN250
     FM191600 23010G18KT P6SM SCT050 BKN250
     FM200300 22012KT P6SM VCTS SCT025 BKN050CB PROB30 2003/2009
      VRB20G40KT 2SM TSRA BR BKN025CB=

USA.gov is the U.S. government's official web portal to all federal, state and local government web resources and services.